Anta, Peru
Current Conditions -  °F | °C
As of 7:00 AM on Thursday 29 Jan 2015 (Local Time) from SPRU Reporting Station
Overcast Overcast  
Wind Chill: 70°   Ceiling: 900
Heat Index: 70°   Visibility: 4mi
Dew Point: 66°   Wind: 7mph
Humidity: 88%   Direction: 100°E
Pressure: 29.85"   Gusts: NA
Location:  9.35°S, 77.6°W
Report Text: SPRU 291200Z 10006KT 7000 FEW004 OVC009 21/19 Q1011 RMK PP000
Loading
Personal Weather Stations






























Interactive Weather Map New forecast layout! Learn more

10-Day Weather Forecast

Advertisements
Track Severe Weather on mobile